Time;durP1;ratioP1;P1;durP2;ratioP2;P2;SDS_P1;SDS_P2;PMS_P1;PMS_P2;Temp;Humidity;BMP_temperature;BMP_pressure;BME280_temperature;BME280_humidity;BME280_pressure;Samples;Min_cycle;Max_cycle;Signal;HPM_P1;HPM_P2
2022/11/25 00:01:37;;;;;;;9.37;1.97;;;6.60;99.90;;;;;;5074327;28;20187;-49
2022/11/25 00:04:03;;;;;;;15.07;2.27;;;6.60;99.90;;;;;;5074594;28;20196;-49
2022/11/25 00:06:33;;;;;;;13.50;2.43;;;6.60;99.90;;;;;;5074977;28;20182;-49
2022/11/25 00:09:02;;;;;;;10.97;1.83;;;6.60;99.90;;;;;;5074975;28;20239;-51
2022/11/25 00:11:28;;;;;;;12.13;2.23;;;6.60;99.90;;;;;;5075049;28;20189;-49
2022/11/25 00:13:55;;;;;;;15.67;2.30;;;6.60;99.90;;;;;;5074653;28;20313;-50
2022/11/25 00:16:22;;;;;;;17.03;2.40;;;6.50;99.90;;;;;;5074591;28;20759;-50
2022/11/25 00:18:50;;;;;;;9.00;2.33;;;6.50;99.90;;;;;;5074779;28;20193;-49
2022/11/25 00:21:19;;;;;;;7.50;2.03;;;6.50;99.90;;;;;;5074929;28;20691;-49
2022/11/25 00:23:57;;;;;;;9.87;2.30;;;6.50;99.90;;;;;;5075200;28;20186;-49
2022/11/25 00:26:24;;;;;;;11.10;2.70;;;6.60;99.90;;;;;;5075186;28;20174;-49
2022/11/25 00:28:50;;;;;;;18.77;2.80;;;6.50;99.90;;;;;;5074902;28;20211;-50
2022/11/25 00:31:19;;;;;;;14.63;2.80;;;6.50;99.90;;;;;;5075497;28;20263;-50
2022/11/25 00:33:45;;;;;;;12.87;2.60;;;6.50;99.90;;;;;;5074774;28;20199;-49
2022/11/25 00:36:23;;;;;;;10.67;2.43;;;6.50;99.90;;;;;;5074804;28;20647;-50
2022/11/25 00:39:00;;;;;;;7.57;2.00;;;6.50;99.90;;;;;;5074862;28;20670;-51
2022/11/25 00:46:58;;;;;;;9.20;2.17;;;6.50;99.90;;;;;;5075163;28;20648;-50
2022/11/25 00:49:24;;;;;;;13.00;2.60;;;6.50;99.90;;;;;;5075092;28;20563;-51
2022/11/25 00:51:50;;;;;;;12.67;2.47;;;6.50;99.90;;;;;;5075049;28;20268;-50
2022/11/25 00:54:15;;;;;;;12.47;2.67;;;6.50;99.90;;;;;;5074935;28;20230;-49
2022/11/25 00:56:41;;;;;;;10.27;2.30;;;6.50;99.90;;;;;;5074740;28;20185;-49
2022/11/25 00:59:07;;;;;;;7.20;2.13;;;6.60;99.90;;;;;;5075245;28;20198;-49
2022/11/25 01:01:33;;;;;;;7.83;2.13;;;6.60;99.90;;;;;;5075679;28;20181;-50
2022/11/25 01:03:59;;;;;;;7.33;2.10;;;6.60;99.90;;;;;;5074312;28;20617;-50
2022/11/25 01:06:25;;;;;;;4.53;1.53;;;6.60;99.90;;;;;;5075528;28;20201;-50
2022/11/25 01:08:51;;;;;;;11.73;2.10;;;6.70;99.90;;;;;;5075575;28;20208;-50
2022/11/25 01:11:19;;;;;;;11.13;2.50;;;6.70;99.90;;;;;;5075713;28;20532;-49
2022/11/25 01:13:45;;;;;;;10.73;2.60;;;6.70;99.90;;;;;;5075278;28;20216;-50
2022/11/25 01:16:14;;;;;;;12.37;2.10;;;6.80;99.90;;;;;;5075862;28;20180;-50
2022/11/25 01:18:40;;;;;;;8.17;1.87;;;6.80;99.90;;;;;;5076127;28;20615;-49
2022/11/25 01:21:12;;;;;;;9.53;2.10;;;6.90;99.90;;;;;;5076777;28;20189;-50
2022/11/25 01:23:38;;;;;;;10.90;2.43;;;6.90;99.90;;;;;;5058367;28;20189;-50
2022/11/25 01:26:06;;;;;;;8.07;2.63;;;6.90;99.90;;;;;;5076406;28;20190;-50
2022/11/25 01:28:32;;;;;;;11.23;2.33;;;6.90;99.90;;;;;;5058201;28;20307;-50
2022/11/25 01:31:13;;;;;;;6.83;2.00;;;7.00;99.90;;;;;;5076488;28;20575;-48
2022/11/25 01:33:39;;;;;;;17.83;2.67;;;7.00;99.90;;;;;;5058102;28;20205;-51
2022/11/25 01:36:08;;;;;;;8.60;2.13;;;7.10;99.90;;;;;;5076385;28;20235;-51
2022/11/25 01:38:34;;;;;;;7.70;1.43;;;7.10;99.90;;;;;;5076432;28;20205;-50
2022/11/25 01:41:01;;;;;;;10.53;2.40;;;7.10;99.90;;;;;;5076482;28;20182;-50
2022/11/25 01:43:27;;;;;;;9.40;2.67;;;8.30;99.90;;;;;;5075821;28;20198;-50
2022/11/25 01:46:16;;;;;;;10.30;1.63;;;7.10;99.90;;;;;;5075682;28;20224;-50
2022/11/25 01:48:56;;;;;;;10.80;2.13;;;7.20;99.90;;;;;;5064557;28;20250;-50
2022/11/25 01:51:40;;;;;;;7.97;2.17;;;7.20;99.90;;;;;;5076019;28;20173;-50
2022/11/25 01:54:12;;;;;;;7.80;2.00;;;7.20;99.90;;;;;;5075239;28;20197;-51
2022/11/25 01:56:43;;;;;;;7.87;2.07;;;7.30;99.90;;;;;;5074760;28;20166;-50
2022/11/25 01:59:09;;;;;;;10.80;2.70;;;7.30;99.90;;;;;;5074362;28;20228;-49
2022/11/25 02:01:35;;;;;;;8.93;1.80;;;7.30;99.90;;;;;;5074840;28;20206;-50
2022/11/25 02:04:01;;;;;;;7.23;2.17;;;7.40;99.90;;;;;;5074318;28;20205;-51
2022/11/25 02:06:35;;;;;;;11.33;1.80;;;7.40;99.90;;;;;;5074062;28;20197;-49
2022/11/25 02:09:04;;;;;;;15.30;2.80;;;7.40;99.90;;;;;;5075499;28;20245;-50
2022/11/25 02:11:32;;;;;;;14.87;2.57;;;7.40;99.90;;;;;;5079883;28;20252;-50
2022/11/25 02:13:59;;;;;;;7.63;1.77;;;7.40;99.90;;;;;;5079656;28;20201;-50
2022/11/25 02:16:25;;;;;;;10.17;2.00;;;7.40;99.90;;;;;;5083205;28;20186;-50
2022/11/25 02:18:51;;;;;;;9.53;3.07;;;7.40;99.90;;;;;;5082643;28;20203;-50
2022/11/25 02:21:24;;;;;;;15.93;2.37;;;7.40;99.90;;;;;;5065732;28;20239;-50
2022/11/25 02:24:08;;;;;;;9.77;2.33;;;7.40;99.90;;;;;;5083547;28;20192;-50
2022/11/25 02:26:34;;;;;;;17.83;2.37;;;7.50;99.90;;;;;;5083190;28;20183;-49
2022/11/25 02:29:00;;;;;;;20.87;2.70;;;7.50;99.90;;;;;;5083995;28;20206;-50
2022/11/25 02:31:25;;;;;;;13.77;3.07;;;7.60;99.90;;;;;;5084845;28;20201;-50
2022/11/25 02:33:51;;;;;;;13.97;2.47;;;7.60;99.90;;;;;;5083500;28;20202;-50
2022/11/25 02:36:20;;;;;;;13.47;2.80;;;7.60;99.90;;;;;;5082292;28;20295;-49
2022/11/25 02:38:47;;;;;;;14.53;2.40;;;7.60;99.90;;;;;;5082860;28;20224;-48
2022/11/25 02:41:35;;;;;;;12.03;2.60;;;7.60;99.90;;;;;;5082352;28;20270;-50
2022/11/25 02:44:01;;;;;;;10.07;2.23;;;7.60;99.90;;;;;;5082137;28;20187;-51
2022/11/25 02:46:28;;;;;;;8.17;1.97;;;7.60;99.90;;;;;;5082383;28;20190;-49
2022/11/25 02:48:55;;;;;;;10.73;2.53;;;7.60;99.90;;;;;;5082120;28;20214;-50
2022/11/25 02:51:24;;;;;;;11.27;2.83;;;7.60;99.90;;;;;;5082227;28;20540;-50
2022/11/25 02:53:50;;;;;;;8.63;2.37;;;7.60;99.90;;;;;;5082146;28;20214;-49
2022/11/25 02:56:16;;;;;;;14.63;2.40;;;7.60;99.90;;;;;;5082198;28;20213;-50
2022/11/25 02:58:42;;;;;;;9.10;2.47;;;7.60;99.90;;;;;;5081738;28;20199;-51
2022/11/25 03:01:08;;;;;;;13.97;2.50;;;7.60;99.90;;;;;;5081290;28;20195;-50
2022/11/25 03:03:34;;;;;;;13.77;2.50;;;7.60;99.90;;;;;;5081375;28;20226;-50
2022/11/25 03:06:01;;;;;;;10.93;2.27;;;7.60;99.90;;;;;;5081501;28;20198;-50
2022/11/25 03:08:26;;;;;;;12.43;2.97;;;7.60;99.90;;;;;;5081427;28;20281;-50
2022/11/25 03:10:52;;;;;;;10.73;2.40;;;7.60;99.90;;;;;;5080637;28;20237;-50
2022/11/25 03:13:18;;;;;;;13.40;2.40;;;7.60;99.90;;;;;;5081416;28;20210;-50
2022/11/25 03:15:43;;;;;;;15.60;2.60;;;7.60;99.90;;;;;;5062712;28;20186;-50
2022/11/25 03:18:09;;;;;;;12.43;2.90;;;7.70;99.90;;;;;;5080188;28;20277;-50
2022/11/25 03:20:36;;;;;;;17.20;3.00;;;7.70;99.90;;;;;;5080301;28;20179;-50
2022/11/25 03:23:02;;;;;;;17.30;3.00;;;7.70;99.90;;;;;;5079837;28;20187;-50
2022/11/25 03:25:28;;;;;;;16.63;2.93;;;7.70;99.90;;;;;;5079639;28;20194;-50
2022/11/25 03:27:53;;;;;;;15.90;2.90;;;7.80;99.90;;;;;;5061004;28;20201;-50
2022/11/25 03:30:22;;;;;;;25.20;3.67;;;7.80;99.90;;;;;;5080287;28;20190;-50
2022/11/25 03:32:48;;;;;;;16.47;3.17;;;7.80;99.90;;;;;;5080730;28;20229;-50
2022/11/25 03:35:14;;;;;;;14.30;2.97;;;7.90;99.90;;;;;;5080163;28;20186;-50
2022/11/25 03:37:40;;;;;;;14.30;3.33;;;7.90;99.90;;;;;;5081766;28;20544;-50
2022/11/25 03:40:06;;;;;;;16.83;3.40;;;7.90;99.90;;;;;;5082553;28;20182;-51
2022/11/25 03:42:32;;;;;;;14.87;3.40;;;8.00;99.90;;;;;;5064623;28;20235;-50
2022/11/25 03:44:58;;;;;;;13.13;3.97;;;8.00;99.90;;;;;;5063942;28;20187;-50
2022/11/25 03:47:24;;;;;;;12.03;3.77;;;8.10;99.90;;;;;;5064546;28;20201;-49
2022/11/25 03:49:49;;;;;;;14.37;3.90;;;8.10;99.90;;;;;;5082035;28;20199;-50
2022/11/25 03:52:15;;;;;;;17.97;3.33;;;8.10;99.90;;;;;;5063906;28;20179;-50
2022/11/25 03:54:40;;;;;;;14.67;2.90;;;8.20;99.90;;;;;;5081435;28;20203;-50
2022/11/25 03:57:06;;;;;;;11.57;3.07;;;8.20;99.90;;;;;;5079896;28;20229;-51
2022/11/25 03:59:32;;;;;;;17.40;3.00;;;8.30;99.90;;;;;;5060709;28;20200;-51
2022/11/25 04:01:57;;;;;;;17.23;2.70;;;8.30;99.90;;;;;;5078919;28;20175;-50
2022/11/25 04:04:23;;;;;;;10.90;2.77;;;8.30;99.90;;;;;;5077990;28;20682;-49
2022/11/25 04:06:49;;;;;;;11.57;2.80;;;8.30;99.90;;;;;;5078028;28;20240;-51
2022/11/25 04:09:14;;;;;;;15.60;3.07;;;8.30;99.90;;;;;;5077483;28;20202;-51
2022/11/25 04:14:24;;;;;;;15.43;2.70;;;8.20;99.90;;;;;;5076680;28;20325;-51
2022/11/25 04:16:50;;;;;;;19.17;2.97;;;8.20;99.90;;;;;;5076391;28;20214;-50
2022/11/25 04:19:15;;;;;;;15.37;2.87;;;8.20;99.90;;;;;;5075773;28;20194;-50
2022/11/25 04:21:41;;;;;;;9.40;2.83;;;8.20;99.90;;;;;;5079620;28;20175;-49
2022/11/25 04:24:07;;;;;;;14.90;2.93;;;8.10;99.90;;;;;;5082107;28;20249;-50
2022/11/25 04:26:33;;;;;;;12.77;2.40;;;8.20;99.90;;;;;;5065079;28;20630;-51
2022/11/25 04:28:58;;;;;;;13.20;3.17;;;8.20;99.90;;;;;;5066903;28;20207;-49
2022/11/25 04:31:24;;;;;;;13.93;3.70;;;8.10;99.90;;;;;;5062777;28;20194;-48
2022/11/25 04:33:49;;;;;;;15.27;3.50;;;8.10;99.90;;;;;;5080428;28;20205;-48
2022/11/25 04:36:15;;;;;;;18.67;3.77;;;8.10;99.90;;;;;;5080572;28;20662;-48
2022/11/25 04:38:41;;;;;;;12.07;3.50;;;8.10;99.90;;;;;;5083346;28;20673;-50
2022/11/25 04:41:07;;;;;;;14.03;3.23;;;8.10;99.90;;;;;;5084347;28;20182;-48
2022/11/25 04:43:32;;;;;;;9.57;2.87;;;8.10;99.90;;;;;;5066738;28;20216;-50
2022/11/25 04:45:59;;;;;;;14.20;3.30;;;8.10;99.90;;;;;;5084055;28;20179;-49
2022/11/25 04:48:24;;;;;;;15.17;3.30;;;8.00;99.90;;;;;;5084040;28;20210;-50
2022/11/25 04:50:50;;;;;;;15.07;2.50;;;8.00;99.90;;;;;;5083074;28;20655;-49
2022/11/25 04:53:15;;;;;;;7.97;2.10;;;8.00;99.90;;;;;;5064729;28;20210;-49
2022/11/25 04:55:41;;;;;;;8.20;2.10;;;8.00;99.90;;;;;;5083063;28;20218;-50
2022/11/25 04:58:09;;;;;;;16.87;2.40;;;8.10;99.90;;;;;;5082610;28;20203;-49
2022/11/25 05:00:35;;;;;;;14.47;2.47;;;8.10;99.90;;;;;;5065433;28;20233;-49
2022/11/25 05:03:00;;;;;;;11.80;2.87;;;8.10;99.90;;;;;;5065807;28;20278;-50
2022/11/25 05:05:26;;;;;;;12.97;2.83;;;8.20;99.90;;;;;;5065585;28;20234;-49
2022/11/25 05:07:52;;;;;;;9.87;2.77;;;8.10;99.90;;;;;;5082617;28;20187;-50
2022/11/25 05:10:17;;;;;;;20.17;2.80;;;8.20;99.90;;;;;;5065064;28;20541;-49
2022/11/25 05:12:43;;;;;;;12.43;2.60;;;8.20;99.90;;;;;;5081812;28;20186;-49
2022/11/25 05:15:09;;;;;;;15.57;2.50;;;8.20;99.90;;;;;;5080872;28;20172;-50
2022/11/25 05:17:35;;;;;;;15.50;2.87;;;8.20;99.90;;;;;;5081165;28;20179;-48
2022/11/25 05:20:01;;;;;;;15.00;3.10;;;8.30;99.90;;;;;;5081006;28;20171;-50
2022/11/25 05:22:31;;;;;;;12.60;2.50;;;8.30;99.90;;;;;;5080804;28;20183;-51
2022/11/25 05:24:58;;;;;;;10.50;2.43;;;8.30;99.90;;;;;;5080725;28;20226;-51
2022/11/25 05:27:24;;;;;;;13.70;3.47;;;8.30;99.90;;;;;;5080540;28;20215;-50
2022/11/25 05:29:49;;;;;;;12.20;2.70;;;8.20;99.90;;;;;;5080190;28;20207;-50
2022/11/25 05:32:15;;;;;;;9.53;2.30;;;8.20;99.90;;;;;;5062399;28;20194;-50
2022/11/25 05:34:42;;;;;;;15.13;2.53;;;8.20;99.90;;;;;;5080042;28;20214;-51
2022/11/25 05:37:09;;;;;;;13.03;2.57;;;8.20;99.90;;;;;;5079712;28;20326;-50
2022/11/25 05:39:35;;;;;;;13.83;2.70;;;8.10;99.90;;;;;;5079438;28;20287;-50
2022/11/25 05:42:00;;;;;;;13.13;2.60;;;8.10;99.90;;;;;;5080174;28;20189;-50
2022/11/25 05:44:26;;;;;;;16.80;2.90;;;8.10;99.90;;;;;;5079933;28;20194;-50
2022/11/25 05:46:52;;;;;;;17.77;3.00;;;8.10;99.90;;;;;;5080298;28;20206;-50
2022/11/25 05:49:18;;;;;;;16.53;2.57;;;8.00;99.90;;;;;;5080420;28;20211;-50
2022/11/25 05:51:44;;;;;;;8.80;2.70;;;8.00;99.90;;;;;;5083785;28;20689;-50
2022/11/25 05:54:10;;;;;;;11.37;2.50;;;8.00;99.90;;;;;;5064957;28;20208;-50
2022/11/25 05:56:36;;;;;;;14.80;2.30;;;8.00;99.90;;;;;;5082859;28;20192;-50
2022/11/25 05:59:03;;;;;;;19.90;3.27;;;8.00;99.90;;;;;;5065000;28;20199;-50
2022/11/25 06:01:28;;;;;;;11.43;2.60;;;7.90;99.90;;;;;;5064037;28;20207;-51
2022/11/25 06:03:58;;;;;;;9.80;2.50;;;7.90;99.90;;;;;;5081686;28;20206;-50
2022/11/25 06:06:23;;;;;;;9.43;2.00;;;7.80;99.90;;;;;;5082149;28;20197;-50
2022/11/25 06:08:49;;;;;;;7.00;2.33;;;7.80;99.90;;;;;;5081814;28;20234;-49
2022/11/25 06:11:16;;;;;;;9.63;2.07;;;7.70;99.90;;;;;;5062409;28;20197;-50
2022/11/25 06:13:43;;;;;;;8.87;2.63;;;7.70;99.90;;;;;;5079656;28;20207;-50
2022/11/25 06:16:27;;;;;;;6.13;2.00;;;7.60;99.90;;;;;;5078998;28;20178;-50
2022/11/25 06:18:53;;;;;;;7.23;1.80;;;7.60;99.90;;;;;;5079737;28;20206;-50
2022/11/25 06:21:18;;;;;;;14.80;2.60;;;8.60;99.90;;;;;;5078910;28;20262;-51
2022/11/25 06:23:45;;;;;;;7.73;1.90;;;7.40;99.90;;;;;;5078814;28;20194;-50
2022/11/25 06:26:18;;;;;;;7.40;1.80;;;7.40;99.90;;;;;;5078418;28;20191;-50
2022/11/25 06:28:45;;;;;;;9.80;1.63;;;7.40;99.90;;;;;;5077833;28;20204;-51
2022/11/25 06:31:19;;;;;;;8.77;2.20;;;7.30;99.90;;;;;;5077821;28;20191;-50
2022/11/25 06:33:49;;;;;;;10.00;2.40;;;7.20;99.90;;;;;;5077225;28;20210;-50
2022/11/25 06:36:16;;;;;;;5.87;1.63;;;7.20;99.90;;;;;;5079025;28;20178;-50
2022/11/25 06:38:47;;;;;;;6.73;1.60;;;7.20;99.90;;;;;;5082725;28;20203;-50
2022/11/25 06:41:13;;;;;;;11.07;1.83;;;7.10;99.90;;;;;;5082665;28;20178;-50
2022/11/25 06:43:39;;;;;;;6.73;1.57;;;7.00;99.90;;;;;;5064741;28;20190;-50
2022/11/25 06:46:08;;;;;;;8.40;2.00;;;7.00;99.90;;;;;;5081726;28;20236;-48
2022/11/25 06:48:34;;;;;;;6.37;1.90;;;6.90;99.90;;;;;;5081796;28;20209;-49
2022/11/25 06:51:02;;;;;;;7.80;1.60;;;6.90;99.90;;;;;;5081969;28;20646;-50
2022/11/25 06:53:28;;;;;;;9.13;1.90;;;6.80;99.90;;;;;;5082218;28;20211;-50
2022/11/25 06:56:11;;;;;;;7.00;2.07;;;6.80;99.90;;;;;;5081994;28;20507;-49
2022/11/25 06:58:37;;;;;;;6.77;1.90;;;6.70;99.90;;;;;;5082951;28;20380;-51
2022/11/25 07:01:20;;;;;;;5.93;1.63;;;6.70;99.90;;;;;;5082196;28;20183;-51
2022/11/25 07:03:48;;;;;;;8.33;1.63;;;6.60;99.90;;;;;;5082422;28;20204;-50
2022/11/25 07:06:15;;;;;;;5.83;1.50;;;6.60;99.90;;;;;;5082391;28;20185;-49
2022/11/25 07:08:41;;;;;;;4.10;1.33;;;6.50;99.90;;;;;;5082561;28;20214;-48
2022/11/25 07:11:17;;;;;;;4.90;1.20;;;6.50;99.90;;;;;;5082045;28;20253;-49
2022/11/25 07:13:42;;;;;;;6.83;1.43;;;6.40;99.90;;;;;;5081278;28;20197;-50
2022/11/25 07:16:10;;;;;;;6.93;1.87;;;6.30;99.90;;;;;;5081359;28;20185;-50
2022/11/25 07:18:38;;;;;;;7.20;1.83;;;6.30;99.90;;;;;;5081729;28;20563;-50
2022/11/25 07:21:10;;;;;;;5.13;1.50;;;6.20;99.90;;;;;;5063523;28;20190;-50
2022/11/25 07:23:36;;;;;;;6.73;1.83;;;6.20;99.90;;;;;;5081567;28;20651;-49
2022/11/25 07:26:03;;;;;;;3.87;1.60;;;6.20;99.90;;;;;;5081556;28;20183;-49
2022/11/25 07:28:29;;;;;;;6.57;1.60;;;6.10;99.90;;;;;;5082067;28;20225;-50
2022/11/25 07:30:55;;;;;;;10.93;1.60;;;6.10;99.90;;;;;;5081605;28;20178;-49
2022/11/25 07:33:20;;;;;;;4.03;1.60;;;6.10;99.90;;;;;;5081370;28;20209;-51
2022/11/25 07:35:46;;;;;;;8.03;1.67;;;6.10;99.90;;;;;;5081057;28;20374;-50
2022/11/25 07:38:11;;;;;;;4.20;1.43;;;6.10;99.90;;;;;;5081070;28;20199;-50
2022/11/25 07:40:37;;;;;;;4.83;1.57;;;6.10;99.90;;;;;;5080218;28;20194;-50
2022/11/25 07:43:03;;;;;;;6.20;1.47;;;6.10;99.90;;;;;;5062775;28;20210;-50
2022/11/25 07:45:28;;;;;;;7.93;1.83;;;6.10;99.90;;;;;;5062568;28;20182;-50
2022/11/25 07:47:54;;;;;;;7.30;1.63;;;6.20;99.90;;;;;;5081589;28;20271;-50
2022/11/25 07:50:20;;;;;;;6.93;2.27;;;6.20;99.90;;;;;;5081074;28;20238;-50
2022/11/25 07:52:45;;;;;;;5.50;1.70;;;6.20;99.90;;;;;;5063085;28;20186;-50
2022/11/25 07:55:11;;;;;;;8.50;1.90;;;6.30;99.90;;;;;;5081950;28;20185;-50
2022/11/25 07:57:36;;;;;;;9.87;1.90;;;6.30;99.90;;;;;;5063439;28;20182;-50
2022/11/25 08:00:03;;;;;;;3.67;1.83;;;6.30;99.90;;;;;;5081316;28;20178;-49
2022/11/25 08:02:29;;;;;;;12.73;2.47;;;6.30;99.90;;;;;;5062996;28;20182;-50
2022/11/25 08:04:54;;;;;;;7.70;2.10;;;6.30;99.90;;;;;;5081024;28;20205;-51
2022/11/25 08:07:20;;;;;;;11.87;1.87;;;6.40;99.90;;;;;;5081138;28;20656;-51
2022/11/25 08:09:45;;;;;;;8.97;2.13;;;6.50;99.90;;;;;;5080454;28;20216;-50
2022/11/25 08:12:11;;;;;;;15.47;2.50;;;6.60;99.90;;;;;;5080551;28;20173;-50
2022/11/25 08:14:37;;;;;;;6.40;1.83;;;6.80;99.90;;;;;;5061887;28;20248;-50
2022/11/25 08:17:04;;;;;;;13.20;2.53;;;6.90;99.90;;;;;;5061788;28;20252;-50
2022/11/25 08:19:31;;;;;;;7.33;2.20;;;7.00;99.90;;;;;;5079319;28;20239;-50
2022/11/25 08:21:56;;;;;;;7.37;2.43;;;7.10;99.90;;;;;;5078716;28;20327;-51
2022/11/25 08:24:22;;;;;;;16.30;2.70;;;7.20;99.90;;;;;;5077937;28;20178;-51
2022/11/25 08:26:47;;;;;;;10.03;3.00;;;7.30;99.90;;;;;;5059755;28;20191;-50
2022/11/25 08:29:15;;;;;;;16.00;4.40;;;7.40;99.90;;;;;;5077629;28;20213;-50
2022/11/25 08:31:41;;;;;;;5.30;2.63;;;7.50;99.90;;;;;;5077822;28;20531;-50
2022/11/25 08:34:07;;;;;;;7.60;2.70;;;7.60;99.90;;;;;;5077709;28;20222;-51
2022/11/25 08:36:34;;;;;;;9.57;3.07;;;7.60;99.90;;;;;;5077015;28;20200;-50
2022/11/25 08:39:03;;;;;;;8.70;2.73;;;7.70;99.90;;;;;;5076821;28;20194;-50
2022/11/25 08:41:32;;;;;;;12.37;2.80;;;7.80;99.90;;;;;;5076745;28;20221;-50
2022/11/25 08:44:00;;;;;;;9.70;2.60;;;7.80;99.90;;;;;;5075587;28;20204;-50
2022/11/25 08:46:32;;;;;;;11.53;3.20;;;7.90;99.90;;;;;;5058027;28;20248;-51
2022/11/25 08:48:58;;;;;;;13.73;3.10;;;7.90;99.90;;;;;;5075766;28;20231;-50
2022/11/25 08:51:27;;;;;;;11.80;2.80;;;8.00;99.90;;;;;;5080338;28;20178;-50
2022/11/25 08:53:53;;;;;;;11.07;2.83;;;8.00;99.90;;;;;;5080067;28;20229;-50
2022/11/25 08:56:21;;;;;;;15.00;2.77;;;9.60;99.90;;;;;;5080321;28;20170;-50
2022/11/25 08:58:48;;;;;;;11.33;2.93;;;8.10;99.90;;;;;;5080115;28;20210;-50
2022/11/25 09:01:14;;;;;;;10.73;3.10;;;8.20;99.90;;;;;;5079248;28;20678;-50
2022/11/25 09:03:44;;;;;;;23.97;3.30;;;8.20;99.90;;;;;;5078822;28;20669;-50
2022/11/25 09:06:11;;;;;;;12.60;2.70;;;8.30;99.90;;;;;;5078100;28;20181;-50
2022/11/25 09:08:38;;;;;;;13.23;2.87;;;8.40;99.90;;;;;;5078076;28;20265;-50
2022/11/25 09:11:04;;;;;;;8.80;2.73;;;8.50;99.90;;;;;;5078155;28;20197;-49
2022/11/25 09:13:30;;;;;;;14.53;3.43;;;8.50;99.90;;;;;;5077889;28;20206;-50
2022/11/25 09:15:56;;;;;;;14.60;3.07;;;8.50;99.90;;;;;;5078222;28;20179;-49
2022/11/25 09:18:25;;;;;;;13.80;3.10;;;8.60;99.90;;;;;;5078415;28;20690;-49
2022/11/25 09:20:51;;;;;;;18.57;3.50;;;8.70;99.90;;;;;;5079032;28;20167;-50
2022/11/25 09:23:18;;;;;;;13.43;3.10;;;8.70;99.90;;;;;;5079225;28;20184;-49
2022/11/25 09:25:53;;;;;;;9.37;3.00;;;8.80;99.90;;;;;;5082540;28;20185;-49
2022/11/25 09:28:20;;;;;;;10.93;3.13;;;8.90;99.90;;;;;;5083327;28;20677;-50
2022/11/25 09:30:45;;;;;;;11.13;3.50;;;9.00;99.90;;;;;;5083412;28;20179;-49
2022/11/25 09:33:11;;;;;;;10.20;3.13;;;9.10;99.90;;;;;;5082558;28;20339;-51
2022/11/25 09:35:36;;;;;;;16.80;3.47;;;9.10;99.90;;;;;;5081746;28;20180;-49
2022/11/25 09:38:02;;;;;;;12.23;2.80;;;9.20;99.90;;;;;;5082170;28;20679;-51
2022/11/25 09:40:56;;;;;;;11.40;2.90;;;9.30;99.90;;;;;;5081604;28;20640;-50
2022/11/25 09:46:46;;;;;;;16.80;2.93;;;9.40;99.90;;;;;;5080362;28;20205;-51
2022/11/25 09:49:33;;;;;;;14.53;2.50;;;9.60;99.90;;;;;;5079931;28;20680;-51
2022/11/25 09:52:20;;;;;;;10.10;2.50;;;9.60;99.90;;;;;;5079386;28;20218;-49
2022/11/25 09:55:07;;;;;;;10.73;2.87;;;9.60;99.90;;;;;;5061357;28;20649;-50
2022/11/25 09:58:12;;;;;;;15.83;2.80;;;9.60;99.90;;;;;;5078502;28;20163;-50
2022/11/25 10:00:43;;;;;;;13.77;3.07;;;9.60;99.90;;;;;;5048254;28;20647;-50
2022/11/25 10:03:42;;;;;;;11.00;2.70;;;9.70;99.90;;;;;;5077709;28;20194;-50
2022/11/25 10:06:34;;;;;;;11.10;2.97;;;9.80;99.90;;;;;;5077582;28;20179;-51
2022/11/25 10:09:14;;;;;;;14.60;3.53;;;9.80;99.90;;;;;;5067984;28;20572;-50
2022/11/25 10:11:49;;;;;;;12.13;3.30;;;9.90;99.90;;;;;;5076627;28;20181;-51
2022/11/25 10:14:47;;;;;;;11.07;3.00;;;10.00;99.90;;;;;;5076301;28;20194;-50
2022/11/25 10:17:32;;;;;;;13.73;2.90;;;10.00;99.90;;;;;;5076602;28;20243;-50
2022/11/25 10:20:04;;;;;;;9.67;2.80;;;10.10;99.90;;;;;;5075616;28;20208;-50
2022/11/25 10:23:00;;;;;;;14.17;2.53;;;10.20;99.90;;;;;;5076182;28;20191;-49
2022/11/25 10:25:45;;;;;;;15.43;3.23;;;10.20;99.90;;;;;;5076361;28;20274;-51
2022/11/25 10:28:24;;;;;;;12.57;2.67;;;10.30;99.90;;;;;;5076276;28;20282;-49
2022/11/25 10:31:15;;;;;;;10.07;2.93;;;10.30;99.90;;;;;;5076488;28;20194;-52
2022/11/25 10:33:51;;;;;;;12.83;3.13;;;10.30;99.90;;;;;;5076170;28;20681;-51
2022/11/25 10:36:33;;;;;;;9.47;2.40;;;10.40;99.90;;;;;;5058842;28;20158;-51
2022/11/25 10:39:01;;;;;;;5.67;2.37;;;10.40;99.90;;;;;;5076589;28;20188;-51
2022/11/25 10:41:31;;;;;;;12.60;2.83;;;10.50;99.90;;;;;;5076692;28;20188;-51
2022/11/25 10:43:57;;;;;;;16.10;2.83;;;10.50;99.90;;;;;;5059036;28;20554;-51
2022/11/25 10:46:22;;;;;;;13.80;2.80;;;10.50;99.90;;;;;;5076694;28;20182;-51
2022/11/25 10:49:02;;;;;;;9.53;2.73;;;10.50;99.90;;;;;;5076873;28;20207;-52
2022/11/25 10:51:45;;;;;;;11.83;3.17;;;10.60;99.90;;;;;;5076661;28;20300;-51
2022/11/25 10:54:20;;;;;;;11.73;3.03;;;10.50;99.90;;;;;;5076846;28;20648;-51
2022/11/25 10:56:56;;;;;;;12.33;3.07;;;10.50;99.90;;;;;;5076790;28;20167;-51
2022/11/25 10:59:26;;;;;;;13.53;3.80;;;10.50;99.90;;;;;;5076836;28;20215;-49
2022/11/25 11:02:04;;;;;;;9.93;2.37;;;10.60;99.90;;;;;;5076947;28;20182;-52
2022/11/25 11:04:31;;;;;;;12.10;2.80;;;10.60;99.90;;;;;;5076790;28;20191;-52
2022/11/25 11:07:08;;;;;;;12.43;2.37;;;10.60;99.90;;;;;;5077304;28;20578;-50
2022/11/25 11:09:35;;;;;;;12.87;3.00;;;10.60;99.90;;;;;;5076827;28;20202;-50
2022/11/25 11:12:16;;;;;;;15.30;2.80;;;10.60;99.90;;;;;;5076750;28;20544;-50
2022/11/25 11:14:42;;;;;;;14.77;2.87;;;10.60;99.90;;;;;;5077081;28;20197;-50
2022/11/25 11:17:29;;;;;;;19.60;4.20;;;10.70;99.90;;;;;;5077342;28;20269;-51
2022/11/25 11:20:15;;;;;;;11.93;3.40;;;10.70;99.90;;;;;;5076853;28;20199;-50
2022/11/25 11:22:48;;;;;;;15.50;3.63;;;10.80;99.90;;;;;;5075788;28;20217;-44
2022/11/25 11:25:19;;;;;;;10.53;2.93;;;10.80;99.90;;;;;;5075381;28;20167;-44
2022/11/25 11:27:46;;;;;;;14.47;3.77;;;10.90;99.90;;;;;;5075130;28;20301;-47
2022/11/25 11:30:16;;;;;;;16.83;3.33;;;10.90;99.90;;;;;;5074982;28;20181;-45
2022/11/25 11:32:46;;;;;;;16.67;3.07;;;10.90;99.90;;;;;;5074837;28;20201;-46
2022/11/25 11:35:40;;;;;;;10.33;3.03;;;10.90;99.90;;;;;;5075206;28;20220;-44
2022/11/25 11:38:25;;;;;;;14.63;3.50;;;10.90;99.90;;;;;;5075562;28;20536;-44
2022/11/25 11:40:58;;;;;;;13.03;3.27;;;10.90;99.90;;;;;;5075119;28;20198;-46
2022/11/25 11:43:45;;;;;;;9.27;3.03;;;10.90;99.90;;;;;;5074716;28;20164;-45
2022/11/25 11:46:39;;;;;;;15.43;2.97;;;11.00;99.90;;;;;;5074861;28;20176;-45
2022/11/25 11:49:23;;;;;;;18.67;3.93;;;11.10;99.90;;;;;;5045644;28;20566;-47
2022/11/25 11:52:00;;;;;;;11.47;3.33;;;11.20;99.90;;;;;;5075000;28;20187;-44
2022/11/25 11:54:34;;;;;;;9.90;2.27;;;11.30;99.90;;;;;;5075867;28;20195;-48
2022/11/25 11:57:06;;;;;;;12.13;2.77;;;11.30;99.90;;;;;;5075285;28;20160;-44
2022/11/25 11:59:52;;;;;;;11.73;3.00;;;11.40;99.90;;;;;;5075267;28;20203;-45
2022/11/25 12:02:20;;;;;;;10.00;2.90;;;11.40;99.90;;;;;;5075344;28;20186;-45
2022/11/25 12:05:13;;;;;;;15.60;3.40;;;11.40;99.90;;;;;;5077681;28;20195;-42
2022/11/25 12:08:09;;;;;;;15.23;3.00;;;11.50;99.90;;;;;;5074309;28;20171;-46
2022/11/25 12:10:38;;;;;;;13.43;3.00;;;11.60;99.90;;;;;;5074627;28;20506;-46
2022/11/25 12:13:27;;;;;;;13.03;2.43;;;11.60;99.90;;;;;;5073943;28;20237;-43
2022/11/25 12:16:06;;;;;;;14.70;2.80;;;11.60;99.90;;;;;;5074574;28;20192;-44
2022/11/25 12:18:46;;;;;;;10.13;3.37;;;11.70;99.90;;;;;;5074083;28;20539;-45
2022/11/25 12:21:30;;;;;;;7.20;2.40;;;11.70;99.90;;;;;;5074241;28;20520;-43
2022/11/25 12:24:08;;;;;;;12.37;2.87;;;11.60;99.90;;;;;;5074131;28;20175;-44
2022/11/25 12:26:47;;;;;;;11.20;2.60;;;11.60;99.90;;;;;;5074129;28;20250;-45
2022/11/25 12:29:48;;;;;;;9.20;2.10;;;11.50;99.90;;;;;;5074763;28;20544;-44
2022/11/25 12:32:51;;;;;;;11.00;1.97;;;11.50;99.90;;;;;;5073981;28;20304;-45
2022/11/25 12:35:30;;;;;;;7.87;2.60;;;11.40;99.90;;;;;;5073613;28;20647;-45
2022/11/25 12:38:15;;;;;;;8.23;2.17;;;11.30;99.90;;;;;;5074079;28;20321;-44
2022/11/25 12:41:13;;;;;;;8.63;2.17;;;11.30;99.90;;;;;;5074243;28;20168;-44
2022/11/25 12:43:57;;;;;;;10.33;2.50;;;11.30;99.90;;;;;;5073679;28;20251;-45
2022/11/25 12:46:41;;;;;;;8.53;2.17;;;11.20;99.90;;;;;;5073423;28;20168;-44
2022/11/25 12:49:18;;;;;;;7.73;2.27;;;11.20;99.90;;;;;;5073942;28;20202;-45
2022/11/25 12:52:20;;;;;;;6.10;2.00;;;11.20;99.90;;;;;;5073808;28;20186;-46
2022/11/25 12:55:08;;;;;;;5.57;1.77;;;11.10;99.90;;;;;;5073747;28;20195;-43
2022/11/25 12:57:49;;;;;;;8.60;2.50;;;11.10;99.90;;;;;;5073680;28;20160;-44
2022/11/25 13:00:25;;;;;;;9.83;2.50;;;11.10;99.90;;;;;;5073483;28;20171;-45
2022/11/25 13:03:21;;;;;;;11.10;2.70;;;11.20;99.90;;;;;;5074101;28;20170;-45
2022/11/25 13:06:06;;;;;;;6.03;1.67;;;11.20;99.90;;;;;;5073612;28;20264;-43
2022/11/25 13:08:46;;;;;;;8.17;2.27;;;11.30;99.90;;;;;;5073471;28;20227;-45
2022/11/25 13:11:27;;;;;;;8.50;2.77;;;11.30;99.90;;;;;;5073234;28;20608;-46
2022/11/25 13:14:01;;;;;;;10.73;1.97;;;11.40;99.90;;;;;;5073243;28;20203;-45
2022/11/25 13:16:27;;;;;;;9.17;2.60;;;11.40;99.90;;;;;;5073379;28;20178;-45
2022/11/25 13:18:54;;;;;;;12.27;2.10;;;11.40;99.90;;;;;;5073152;28;20191;-43